Terminal Aerodrome Forecast
Issued by NWS Austin/San Antonio, TX

Home | Current Version | Previous Version | Text Only | Print | Product List | Glossary On
Versions: 1 2 3 4 5 6 7 8 9 10 11 12 13 14 15 16 17 18 19 20 21 22 23 24 25 26 27 28 29 30 31
000
FTUS44 KEWX 272323
TAFAUS
TAF
KAUS 272323Z 2800/2906 16008KT P6SM SCT050 BKN200
     FM280700 18004KT 5SM BR BKN015
     FM280900 18005KT 4SM BR OVC007
     FM281300 19008KT P6SM BKN015 OVC050
     FM281500 20006KT P6SM BKN040=

USA.gov is the U.S. government's official web portal to all federal, state and local government web resources and services.